createdAt,value
2022-08-17T00:02:25.971Z,99874.64
2022-08-17T00:07:29.488Z,99869.26
2022-08-17T00:12:44.546Z,99870.96
2022-08-17T00:17:49.171Z,99869.18
2022-08-17T00:23:09.966Z,99868.35
2022-08-17T00:28:16.184Z,99869.13
2022-08-17T00:33:24.361Z,99863.48
2022-08-17T00:38:29.197Z,99858.84
2022-08-17T00:43:37.761Z,99867.02
2022-08-17T00:48:42.291Z,99868.67
2022-08-17T00:53:51.475Z,99878.28
2022-08-17T00:58:55.430Z,99878.98
2022-08-17T01:03:59.989Z,99879.80
2022-08-17T01:09:04.281Z,99880.23
2022-08-17T01:14:09.032Z,99884.46
2022-08-17T01:19:20.204Z,99888.90
2022-08-17T01:24:23.352Z,99894.02
2022-08-17T01:29:30.861Z,99896.23
2022-08-17T01:34:42.676Z,99895.89
2022-08-17T01:39:54.224Z,99894.09
2022-08-17T01:45:03.168Z,99895.71
2022-08-17T01:50:16.507Z,99897.48
2022-08-17T01:55:27.454Z,99899.98
2022-08-17T02:00:59.694Z,99904.92
2022-08-17T02:05:53.432Z,99897.33
2022-08-17T02:10:56.448Z,99896.94
2022-08-17T02:16:00.735Z,99890.58
2022-08-17T02:21:04.891Z,99889.88
2022-08-17T02:26:08.065Z,99891.33
2022-08-17T02:31:12.670Z,99884.45
2022-08-17T02:36:15.426Z,99883.22
2022-08-17T02:41:18.882Z,99882.60
2022-08-17T02:46:22.663Z,99877.31
2022-08-17T02:51:27.678Z,99880.91
2022-08-17T02:56:30.409Z,99881.72
2022-08-17T03:01:33.168Z,99879.16
2022-08-17T03:06:36.171Z,99877.33
2022-08-17T03:11:38.985Z,99875.13
2022-08-17T03:16:41.696Z,99875.39
2022-08-17T03:21:45.170Z,99878.45
2022-08-17T03:26:47.964Z,99886.36
2022-08-17T03:31:50.643Z,99889.81
2022-08-17T03:36:53.357Z,99894.48
2022-08-17T03:42:07.049Z,99894.41
2022-08-17T03:47:29.266Z,99894.48
2022-08-17T03:52:51.883Z,99891.05
2022-08-17T03:57:55.472Z,99893.95
2022-08-17T04:02:58.219Z,99903.77
2022-08-17T04:08:01.038Z,99909.07
2022-08-17T04:13:07.891Z,99911.74
2022-08-17T04:18:10.990Z,99911.21
2022-08-17T04:23:17.167Z,99912.48
2022-08-17T04:28:21.085Z,99908.09
2022-08-17T04:33:27.362Z,99910.39
2022-08-17T04:38:35.869Z,99914.80
2022-08-17T04:43:40.809Z,99913.71
2022-08-17T04:48:47.302Z,99912.15
2022-08-17T04:53:55.167Z,99913.49
2022-08-17T04:59:09.047Z,99915.61
2022-08-17T05:04:32.802Z,99916.25
2022-08-17T05:09:37.474Z,99923.02
2022-08-17T05:14:40.929Z,99923.45
2022-08-17T05:19:43.620Z,99931.19
2022-08-17T05:24:53.367Z,99934.64
2022-08-17T05:29:57.288Z,99935.02
2022-08-17T05:35:00.620Z,99931.57
2022-08-17T05:40:04.558Z,99934.90
2022-08-17T05:45:08.369Z,99934.79
2022-08-17T05:50:26.080Z,99935.05
2022-08-17T05:55:38.914Z,99937.79
2022-08-17T06:00:56.088Z,99939.41
2022-08-17T06:06:31.356Z,99936.94
2022-08-17T06:11:42.820Z,99940.52
2022-08-17T06:16:51.589Z,99947.80
2022-08-17T06:21:56.004Z,99954.65
2022-08-17T06:27:07.414Z,99952.91
2022-08-17T06:32:12.854Z,99951.39
2022-08-17T06:37:39.248Z,99952.48
2022-08-17T06:43:14.779Z,99953.05
2022-08-17T06:48:32.724Z,99954.59
2022-08-17T06:53:59.730Z,99957.21
2022-08-17T06:59:03.264Z,99961.13
2022-08-17T07:04:14.429Z,99962.01
2022-08-17T07:09:34.360Z,99960.17
2022-08-17T07:14:51.817Z,99962.71
2022-08-17T07:20:05.533Z,99962.20
2022-08-17T07:25:11.909Z,99961.84
2022-08-17T07:30:26.126Z,99955.28
2022-08-17T07:35:31.358Z,99960.63
2022-08-17T07:40:49.983Z,99965.20
2022-08-17T07:46:16.896Z,99962.80
2022-08-17T07:51:29.396Z,99967.79
2022-08-17T07:56:37.892Z,99964.36
2022-08-17T08:01:42.518Z,99968.31
2022-08-17T08:06:54.446Z,99967.02
2022-08-17T08:11:57.222Z,99965.65
2022-08-17T08:17:04.526Z,99957.65
2022-08-17T08:22:16.349Z,99959.53
2022-08-17T08:27:38.618Z,99961.45
2022-08-17T08:33:20.216Z,99955.52
2022-08-17T08:38:39.320Z,99958.69
2022-08-17T08:44:03.659Z,99964.28
2022-08-17T08:50:03.331Z,99962.57
2022-08-17T08:55:19.703Z,99958.24
2022-08-17T09:00:25.617Z,99955.60
2022-08-17T09:05:48.411Z,99948.47
2022-08-17T09:10:51.249Z,99948.48
2022-08-17T09:16:00.073Z,99956.77
2022-08-17T09:21:33.964Z,99962.55
2022-08-17T09:26:54.053Z,99956.63
2022-08-17T09:32:01.608Z,99952.66
2022-08-17T09:37:23.255Z,99956.38
2022-08-17T09:42:35.638Z,99956.84
2022-08-17T09:47:48.018Z,99961.09
2022-08-17T09:52:58.216Z,99959.05
2022-08-17T09:58:30.266Z,99960.10
2022-08-17T10:03:43.101Z,99957.49
2022-08-17T10:09:09.738Z,99960.30
2022-08-17T10:14:35.961Z,99965.63
2022-08-17T10:19:51.995Z,99959.10
2022-08-17T10:25:22.935Z,99962.06
2022-08-17T10:30:31.298Z,99961.83
2022-08-17T10:35:39.778Z,99956.57
2022-08-17T10:40:54.847Z,99956.64
2022-08-17T10:46:30.019Z,99960.13
2022-08-17T10:51:40.060Z,99953.29
2022-08-17T10:56:50.505Z,99954.17
2022-08-17T11:02:03.586Z,99950.84
2022-08-17T11:07:25.959Z,99949.15
2022-08-17T11:12:47.774Z,99946.11
2022-08-17T11:18:11.531Z,99941.75
2022-08-17T11:23:29.612Z,99941.48
2022-08-17T11:28:45.182Z,99935.41
2022-08-17T11:33:59.225Z,99936.23
2022-08-17T11:39:06.229Z,99941.64
2022-08-17T11:44:15.701Z,99939.20
2022-08-17T11:50:01.034Z,99935.30
2022-08-17T11:55:31.927Z,99941.64
2022-08-17T12:00:46.372Z,99940.18
2022-08-17T12:05:53.632Z,99939.06
2022-08-17T12:11:07.010Z,99934.51
2022-08-17T12:16:15.467Z,99933.22
2022-08-17T12:21:27.065Z,99934.16
2022-08-17T12:26:33.394Z,99940.17
2022-08-17T12:31:44.424Z,99941.16
2022-08-17T12:36:50.470Z,99941.84
2022-08-17T12:42:01.959Z,99947.04
2022-08-17T12:47:21.834Z,99952.89
2022-08-17T12:52:33.131Z,99948.80
2022-08-17T12:57:38.472Z,99956.23
2022-08-17T13:02:58.860Z,99956.11
2022-08-17T13:08:06.166Z,99953.38
2022-08-17T13:13:21.398Z,99957.07
2022-08-17T13:18:49.902Z,99953.69
2022-08-17T13:23:57.579Z,99952.59
2022-08-17T13:29:03.945Z,99951.50
2022-08-17T13:34:12.779Z,99939.42
2022-08-17T13:39:25.383Z,99940.15
2022-08-17T13:44:39.548Z,99937.31
2022-08-17T13:49:48.755Z,99936.70
2022-08-17T13:54:52.278Z,99937.23
2022-08-17T14:00:18.045Z,99935.86
2022-08-17T14:05:20.756Z,99930.56
2022-08-17T14:10:25.403Z,99929.17
2022-08-17T14:15:55.064Z,99929.38
2022-08-17T14:20:53.282Z,99924.27
2022-08-17T14:25:55.957Z,99926.26
2022-08-17T14:30:59.030Z,99935.46
2022-08-17T14:36:01.965Z,99939.54
2022-08-17T14:41:05.231Z,99933.80
2022-08-17T14:46:07.963Z,99930.78
2022-08-17T14:51:11.933Z,99930.04
2022-08-17T14:56:14.808Z,99938.20
2022-08-17T15:01:20.278Z,99940.45
2022-08-17T15:06:24.851Z,99935.38
2022-08-17T15:11:27.408Z,99933.23
2022-08-17T15:16:30.190Z,99938.97
2022-08-17T15:21:36.004Z,99939.53
2022-08-17T15:26:39.257Z,99932.84
2022-08-17T15:31:42.014Z,99932.25
2022-08-17T15:36:49.497Z,99930.47
2022-08-17T15:41:58.626Z,99929.15
2022-08-17T15:47:01.984Z,99929.30
2022-08-17T15:52:26.298Z,99931.35
2022-08-17T15:57:28.854Z,99933.71
2022-08-17T16:03:13.819Z,99930.77
2022-08-17T16:07:56.728Z,99934.92
2022-08-17T16:12:59.717Z,99935.75
2022-08-17T16:18:03.037Z,99937.89
2022-08-17T16:23:05.838Z,99941.85
2022-08-17T16:28:08.558Z,99948.69
2022-08-17T16:33:11.872Z,99954.13
2022-08-17T16:38:14.592Z,99955.27
2022-08-17T16:43:17.374Z,99952.42
2022-08-17T16:48:20.102Z,99954.83
2022-08-17T16:53:23.166Z,99957.86
2022-08-17T16:58:26.080Z,99950.27
2022-08-17T17:03:31.380Z,99959.83
2022-08-17T17:08:48.552Z,99961.17
2022-08-17T17:13:57.916Z,99967.66
2022-08-17T17:19:10.399Z,99964.52
2022-08-17T17:24:29.925Z,99971.92
2022-08-17T17:29:48.747Z,99973.81
2022-08-17T17:35:00.818Z,99973.45
2022-08-17T17:40:12.542Z,99979.43
2022-08-17T17:45:26.205Z,99983.28
2022-08-17T17:50:48.953Z,99990.15
2022-08-17T17:56:01.739Z,100000.77
2022-08-17T18:01:29.907Z,100005.49
2022-08-17T18:07:03.145Z,100007.48
2022-08-17T18:12:19.954Z,100009.27
2022-08-17T18:17:23.277Z,100017.61
2022-08-17T18:22:26.378Z,100019.31
2022-08-17T18:27:39.009Z,100025.94
2022-08-17T18:32:46.478Z,100032.70
2022-08-17T18:37:52.184Z,100034.29
2022-08-17T18:42:55.146Z,100039.91
2022-08-17T18:47:57.957Z,100035.46
2022-08-17T18:53:33.222Z,100036.47
2022-08-17T18:58:36.922Z,100047.02
2022-08-17T19:03:43.286Z,100047.36
2022-08-17T19:08:46.151Z,100048.64
2022-08-17T19:14:08.120Z,100052.40
2022-08-17T19:19:26.814Z,100062.00
2022-08-17T19:24:33.695Z,100067.41
2022-08-17T19:30:08.421Z,100067.28
2022-08-17T19:35:17.412Z,100067.87
2022-08-17T19:40:55.763Z,100066.40
2022-08-17T19:46:07.589Z,100076.24
2022-08-17T19:51:29.199Z,100081.91
2022-08-17T19:56:44.060Z,100090.10
2022-08-17T20:02:09.095Z,100096.73
2022-08-17T20:07:23.870Z,100108.50
2022-08-17T20:12:31.659Z,100118.02
2022-08-17T20:17:43.826Z,100124.61
2022-08-17T20:23:12.809Z,100119.00
2022-08-17T20:28:18.232Z,100113.37
2022-08-17T20:33:32.668Z,100118.20
2022-08-17T20:38:51.201Z,100122.55
2022-08-17T20:43:56.854Z,100123.97
2022-08-17T20:49:45.248Z,100125.90
2022-08-17T20:54:52.260Z,100127.69
2022-08-17T20:59:56.979Z,100133.61
2022-08-17T21:05:07.268Z,100133.39
2022-08-17T21:10:14.069Z,100129.92
2022-08-17T21:15:35.908Z,100136.80
2022-08-17T21:21:17.906Z,100132.45
2022-08-17T21:26:29.651Z,100134.02
2022-08-17T21:31:40.995Z,100146.07
2022-08-17T21:36:50.903Z,100144.93
2022-08-17T21:41:56.815Z,100134.38
2022-08-17T21:47:19.943Z,100140.95
2022-08-17T21:52:27.137Z,100141.15
2022-08-17T21:57:31.023Z,100134.95
2022-08-17T22:02:41.791Z,100125.57
2022-08-17T22:07:53.050Z,100122.16
2022-08-17T22:13:18.193Z,100123.84
2022-08-17T22:18:28.905Z,100117.05
2022-08-17T22:23:55.964Z,100113.91
2022-08-17T22:28:59.030Z,100105.14
2022-08-17T22:34:04.710Z,100102.33
2022-08-17T22:39:08.390Z,100097.17
2022-08-17T22:44:14.316Z,100102.10
2022-08-17T22:49:31.741Z,100103.37
2022-08-17T22:54:53.300Z,100107.38
2022-08-17T22:59:57.577Z,100112.34
2022-08-17T23:05:09.701Z,100115.26
2022-08-17T23:10:14.475Z,100109.88
2022-08-17T23:15:19.177Z,100112.63
2022-08-17T23:20:21.919Z,100112.68
2022-08-17T23:25:30.719Z,100104.83
2022-08-17T23:30:36.913Z,100104.15
2022-08-17T23:35:41.100Z,100102.56
2022-08-17T23:40:44.158Z,100112.31
2022-08-17T23:45:47.139Z,100112.67
2022-08-17T23:50:51.837Z,100116.65
2022-08-17T23:56:03.849Z,100116.38
